createdAt,value
2023-02-11T00:03:19.532Z,28.80
2023-02-11T00:08:20.957Z,28.42
2023-02-11T00:13:23.998Z,26.35
2023-02-11T00:18:25.439Z,30.25
2023-02-11T00:23:26.895Z,30.05
2023-02-11T00:28:28.379Z,32.70
2023-02-11T00:33:29.842Z,26.58
2023-02-11T00:38:31.283Z,27.98
2023-02-11T00:43:32.778Z,27.52
2023-02-11T00:48:34.403Z,29.55
2023-02-11T00:53:36.477Z,30.17
2023-02-11T00:58:38.041Z,30.98
2023-02-11T01:03:40.753Z,33.47
2023-02-11T01:08:42.166Z,29.13
2023-02-11T01:13:43.727Z,29.77
2023-02-11T01:18:45.823Z,28.40
2023-02-11T01:23:47.374Z,30.25
2023-02-11T01:28:48.792Z,31.17
2023-02-11T01:33:50.258Z,34.13
2023-02-11T01:38:51.690Z,29.52
2023-02-11T01:43:55.055Z,30.08
2023-02-11T01:49:03.458Z,26.92
2023-02-11T01:54:27.889Z,28.80
2023-02-11T01:59:39.030Z,31.40
2023-02-11T02:04:53.599Z,26.83
2023-02-11T02:10:01.686Z,30.48
2023-02-11T02:15:32.637Z,28.15
2023-02-11T02:20:58.950Z,28.20
2023-02-11T02:26:11.898Z,25.65
2023-02-11T02:31:36.606Z,30.40
2023-02-11T02:36:54.170Z,28.77
2023-02-11T02:41:56.936Z,29.77
2023-02-11T02:46:58.427Z,25.67
2023-02-11T02:52:18.090Z,26.08
2023-02-11T02:57:25.588Z,27.08
2023-02-11T03:02:34.804Z,27.92
2023-02-11T03:07:56.781Z,25.50
2023-02-11T03:12:59.531Z,27.85
2023-02-11T03:18:03.720Z,27.70
2023-02-11T03:23:11.073Z,29.13
2023-02-11T03:28:36.806Z,30.80
2023-02-11T03:33:52.171Z,27.67
2023-02-11T03:38:56.979Z,25.67
2023-02-11T03:44:00.566Z,31.17
2023-02-11T03:49:08.568Z,31.25
2023-02-11T03:54:17.551Z,31.58
2023-02-11T03:59:19.180Z,33.08
2023-02-11T04:04:20.619Z,33.00
2023-02-11T04:09:22.047Z,31.15
2023-02-11T04:14:23.446Z,26.50
2023-02-11T04:19:24.837Z,27.98
2023-02-11T04:24:26.250Z,30.52
2023-02-11T04:29:28.253Z,26.73
2023-02-11T04:34:29.655Z,31.77
2023-02-11T04:39:31.138Z,29.50
2023-02-11T04:44:32.705Z,28.55
2023-02-11T04:49:34.206Z,28.45
2023-02-11T04:54:35.673Z,30.33
2023-02-11T04:59:37.293Z,31.45
2023-02-11T05:04:38.718Z,33.75
2023-02-11T05:09:40.324Z,34.28
2023-02-11T05:14:41.863Z,31.45
2023-02-11T05:19:43.269Z,31.67
2023-02-11T05:24:44.655Z,35.25
2023-02-11T05:29:46.143Z,29.35
2023-02-11T05:34:47.545Z,34.65
2023-02-11T05:39:49.084Z,38.08
2023-02-11T05:44:50.809Z,34.13
2023-02-11T05:49:53.511Z,38.33
2023-02-11T05:54:54.920Z,38.15
2023-02-11T05:59:56.474Z,33.30
2023-02-11T06:04:57.874Z,35.20
2023-02-11T06:09:59.519Z,35.60
2023-02-11T06:15:00.948Z,35.92
2023-02-11T06:20:04.301Z,34.00
2023-02-11T06:25:06.170Z,33.33
2023-02-11T06:30:08.469Z,36.83
2023-02-11T06:35:11.914Z,33.23
2023-02-11T06:40:13.834Z,30.95
2023-02-11T06:45:15.285Z,47.10
2023-02-11T06:50:16.699Z,35.13
2023-02-11T06:55:18.247Z,36.63
2023-02-11T07:00:20.639Z,36.70
2023-02-11T07:05:22.032Z,43.17
2023-02-11T07:10:23.431Z,42.10
2023-02-11T07:15:24.862Z,42.45
2023-02-11T07:20:26.423Z,41.70
2023-02-11T07:25:27.883Z,42.45
2023-02-11T07:30:29.565Z,40.20
2023-02-11T07:35:31.382Z,43.92
2023-02-11T07:40:32.868Z,40.78
2023-02-11T07:45:34.263Z,42.90
2023-02-11T07:50:35.822Z,44.30
2023-02-11T07:55:37.264Z,39.80
2023-02-11T08:00:38.748Z,43.75
2023-02-11T08:05:40.180Z,40.88
2023-02-11T08:10:41.654Z,37.72
2023-02-11T08:15:43.067Z,40.38
2023-02-11T08:20:44.928Z,36.08
2023-02-11T08:25:46.436Z,34.67
2023-02-11T08:30:47.872Z,37.50
2023-02-11T08:35:49.337Z,37.63
2023-02-11T08:40:50.990Z,34.33
2023-02-11T08:45:52.917Z,34.42
2023-02-11T08:50:55.668Z,36.67
2023-02-11T08:55:58.161Z,33.88
2023-02-11T09:00:59.668Z,33.40
2023-02-11T09:06:06.937Z,37.22
2023-02-11T09:11:09.981Z,38.80
2023-02-11T09:21:19.409Z,36.78
2023-02-11T09:26:32.578Z,38.47
2023-02-11T09:36:38.752Z,35.35
2023-02-11T09:42:16.682Z,95.68
2023-02-11T09:47:34.553Z,38.28
2023-02-11T09:52:51.674Z,38.20
2023-02-11T09:57:53.609Z,36.92
2023-02-11T10:03:26.180Z,42.42
2023-02-11T10:08:57.302Z,40.30
2023-02-11T10:14:23.791Z,35.55
2023-02-11T10:19:43.676Z,38.75
2023-02-11T10:25:02.781Z,37.95
2023-02-11T10:30:16.541Z,33.20
2023-02-11T10:35:21.623Z,32.25
2023-02-11T10:40:28.452Z,34.17
2023-02-11T10:45:42.858Z,34.70
2023-02-11T10:50:44.284Z,35.38
2023-02-11T10:55:54.611Z,33.33
2023-02-11T11:00:59.046Z,35.17
2023-02-11T11:06:09.419Z,34.30
2023-02-11T11:11:14.059Z,29.77
2023-02-11T11:16:19.185Z,38.65
2023-02-11T11:21:25.787Z,32.30
2023-02-11T11:26:38.714Z,33.38
2023-02-11T11:31:52.469Z,32.70
2023-02-11T11:36:56.054Z,30.60
2023-02-11T11:42:00.280Z,30.83
2023-02-11T11:47:09.010Z,33.65
2023-02-11T11:52:28.749Z,28.27
2023-02-11T11:57:33.199Z,29.20
2023-02-11T12:03:07.042Z,31.75
2023-02-11T12:08:36.092Z,31.58
2023-02-11T12:13:46.585Z,34.95
2023-02-11T12:19:24.657Z,32.50
2023-02-11T12:24:42.258Z,34.25
2023-02-11T12:30:28.299Z,37.90
2023-02-11T12:35:55.675Z,35.42
2023-02-11T12:41:53.307Z,34.08
2023-02-11T12:47:33.450Z,38.78
2023-02-11T12:52:49.885Z,33.75
2023-02-11T12:57:56.014Z,35.05
2023-02-11T13:03:11.821Z,32.72
2023-02-11T13:08:22.611Z,38.03
2023-02-11T13:13:35.667Z,35.20
2023-02-11T13:18:43.966Z,31.08
2023-02-11T13:24:05.482Z,38.70
2023-02-11T13:29:31.455Z,29.15
2023-02-11T13:34:41.792Z,30.30
2023-02-11T13:39:43.222Z,30.55
2023-02-11T13:44:44.806Z,30.10
2023-02-11T13:49:53.308Z,29.08
2023-02-11T13:54:57.194Z,31.42
2023-02-11T14:00:24.342Z,31.50
2023-02-11T14:05:50.059Z,32.42
2023-02-11T14:10:55.798Z,28.60
2023-02-11T14:16:15.844Z,33.70
2023-02-11T14:21:27.790Z,30.77
2023-02-11T14:26:43.818Z,30.77
2023-02-11T14:31:57.399Z,31.55
2023-02-11T14:37:09.660Z,32.05
2023-02-11T14:42:19.812Z,30.98
2023-02-11T14:47:29.312Z,30.25
2023-02-11T14:52:34.359Z,26.50
2023-02-11T14:57:37.747Z,30.08
2023-02-11T15:02:39.309Z,29.33
2023-02-11T15:07:46.956Z,29.50
2023-02-11T15:12:49.403Z,29.40
2023-02-11T15:17:50.930Z,29.40
2023-02-11T15:22:57.616Z,28.05
2023-02-11T15:27:59.104Z,27.05
2023-02-11T15:33:03.256Z,26.63
2023-02-11T15:38:05.780Z,31.67
2023-02-11T15:43:09.900Z,30.37
2023-02-11T15:48:20.084Z,31.73
2023-02-11T15:53:31.092Z,32.08
2023-02-11T15:58:40.278Z,29.40
2023-02-11T16:03:42.781Z,31.10
2023-02-11T16:08:57.428Z,31.70
2023-02-11T16:14:00.405Z,30.40
2023-02-11T16:19:05.221Z,36.75
2023-02-11T16:24:17.289Z,39.22
2023-02-11T16:29:30.592Z,38.28
2023-02-11T16:34:32.108Z,39.25
2023-02-11T16:39:33.789Z,38.58
2023-02-11T16:44:35.761Z,47.80
2023-02-11T16:49:40.456Z,40.38
2023-02-11T16:54:42.393Z,52.30
2023-02-11T16:59:44.794Z,51.40
2023-02-11T17:04:46.671Z,52.80
2023-02-11T17:09:48.226Z,52.20
2023-02-11T17:14:49.713Z,58.92
2023-02-11T17:19:51.211Z,59.72
2023-02-11T17:24:52.787Z,55.35
2023-02-11T17:29:54.334Z,43.97
2023-02-11T17:34:55.746Z,48.70
2023-02-11T17:39:57.180Z,51.80
2023-02-11T17:44:58.601Z,46.05
2023-02-11T17:50:00.228Z,51.92
2023-02-11T17:55:01.730Z,49.42
2023-02-11T18:00:05.649Z,52.65
2023-02-11T18:05:14.601Z,57.17
2023-02-11T18:10:16.013Z,62.50
2023-02-11T18:15:17.458Z,57.97
2023-02-11T18:20:18.959Z,62.78
2023-02-11T18:25:20.445Z,66.80
2023-02-11T18:30:22.678Z,74.40
2023-02-11T18:35:24.237Z,64.97
2023-02-11T18:40:25.632Z,66.47
2023-02-11T18:45:29.024Z,67.93
2023-02-11T18:50:30.636Z,79.32
2023-02-11T18:55:32.193Z,89.00
2023-02-11T19:00:34.563Z,87.40
2023-02-11T19:05:47.912Z,83.20
2023-02-11T19:10:49.880Z,73.85
2023-02-11T19:15:51.592Z,75.40
2023-02-11T19:20:53.214Z,85.78
2023-02-11T19:25:54.622Z,79.38
2023-02-11T19:30:56.116Z,68.60
2023-02-11T19:36:03.351Z,62.53
2023-02-11T19:41:05.009Z,59.20
2023-02-11T19:46:06.635Z,62.00
2023-02-11T19:51:12.068Z,62.22
2023-02-11T19:56:15.636Z,55.20
2023-02-11T20:01:20.081Z,52.15
2023-02-11T20:06:28.021Z,62.03
2023-02-11T20:11:31.506Z,81.18
2023-02-11T20:16:47.679Z,55.33
2023-02-11T20:21:55.460Z,47.35
2023-02-11T20:26:56.946Z,45.72
2023-02-11T20:31:58.636Z,45.03
2023-02-11T20:37:00.481Z,46.67
2023-02-11T20:42:01.907Z,47.45
2023-02-11T20:47:03.445Z,44.78
2023-02-11T20:52:04.979Z,46.47
2023-02-11T20:57:07.086Z,53.95
2023-02-11T21:02:10.141Z,62.83
2023-02-11T21:07:11.654Z,75.55
2023-02-11T21:12:13.259Z,80.78
2023-02-11T21:17:14.687Z,85.88
2023-02-11T21:22:16.118Z,79.05
2023-02-11T21:27:17.579Z,98.45
2023-02-11T21:32:19.004Z,102.43
2023-02-11T21:37:21.199Z,102.53
2023-02-11T21:42:22.674Z,108.67
2023-02-11T21:47:24.216Z,82.47
2023-02-11T21:52:25.687Z,75.82
2023-02-11T21:57:27.193Z,94.70
2023-02-11T22:02:28.611Z,112.25
2023-02-11T22:07:30.070Z,128.13
2023-02-11T22:12:31.561Z,113.53
2023-02-11T22:17:33.929Z,147.52
2023-02-11T22:22:35.619Z,130.87
2023-02-11T22:27:37.023Z,138.50
2023-02-11T22:32:38.448Z,146.30
2023-02-11T22:37:39.911Z,142.13
2023-02-11T22:42:41.326Z,174.98
2023-02-11T22:47:42.728Z,175.73
2023-02-11T22:52:44.146Z,180.98
2023-02-11T22:57:45.541Z,207.73
2023-02-11T23:02:47.240Z,214.43
2023-02-11T23:07:48.665Z,251.27
2023-02-11T23:12:50.143Z,230.85
2023-02-11T23:17:51.550Z,230.30
2023-02-11T23:22:52.978Z,276.70
2023-02-11T23:27:54.478Z,354.52
2023-02-11T23:32:55.873Z,500.05
2023-02-11T23:37:57.331Z,487.95
2023-02-11T23:42:58.752Z,674.75
2023-02-11T23:48:00.345Z,770.30
2023-02-11T23:53:01.823Z,746.15
2023-02-11T23:58:03.221Z,733.40
